Time;durP1;ratioP1;P1;durP2;ratioP2;P2;SDS_P1;SDS_P2;PMS_P1;PMS_P2;Temp;Humidity;BMP_temperature;BMP_pressure;BME280_temperature;BME280_humidity;BME280_pressure;Samples;Min_cycle;Max_cycle;Signal;HPM_P1;HPM_P2
2022/05/20 00:00:49;;;;;;;2.50;2.30;;;;;;;16.66;42.15;95630.44;5087646;28;20181;-76
2022/05/20 00:03:16;;;;;;;2.77;2.37;;;;;;;16.97;42.16;95686.88;5087537;28;20193;-76
2022/05/20 00:05:43;;;;;;;6.07;2.60;;;;;;;16.96;42.07;95693.81;5086907;28;20182;-77
2022/05/20 00:08:10;;;;;;;2.90;2.37;;;;;;;16.93;42.39;95699.31;5086459;28;20208;-76
2022/05/20 00:10:37;;;;;;;2.90;2.60;;;;;;;16.84;42.54;95681.28;5086891;28;20193;-77
2022/05/20 00:13:06;;;;;;;3.00;2.27;;;;;;;16.89;42.58;95687.66;5087388;28;20205;-76
2022/05/20 00:15:34;;;;;;;4.40;2.67;;;;;;;16.88;42.83;95692.94;5086821;28;20178;-78
2022/05/20 00:18:01;;;;;;;5.03;2.60;;;;;;;16.83;42.76;95690.81;5087465;28;20201;-76
2022/05/20 00:20:30;;;;;;;2.63;2.40;;;;;;;16.82;43.06;95686.63;5087076;28;20193;-78
2022/05/20 00:22:57;;;;;;;6.77;2.53;;;;;;;16.80;43.02;95691.94;5086239;28;20189;-79
2022/05/20 00:28:10;;;;;;;3.07;2.60;;;;;;;16.38;43.40;95645.28;5086742;28;20334;-78
2022/05/20 00:30:38;;;;;;;2.97;2.50;;;;;;;16.72;43.51;95697.06;5086628;28;20201;-77
2022/05/20 00:33:06;;;;;;;5.57;3.10;;;;;;;16.69;43.60;95699.91;5085851;28;20218;-78
2022/05/20 00:35:33;;;;;;;4.13;2.73;;;;;;;16.61;43.73;95691.28;5086424;28;20660;-77
2022/05/20 00:37:59;;;;;;;4.50;2.67;;;;;;;16.52;43.91;95686.03;5086744;28;20187;-78
2022/05/20 00:40:28;;;;;;;5.43;2.87;;;;;;;16.65;43.86;95715.84;5088314;28;20197;-77
2022/05/20 00:43:15;;;;;;;4.27;2.80;;;;;;;16.58;44.11;95707.06;5088245;28;20190;-78
2022/05/20 00:45:45;;;;;;;3.00;2.70;;;;;;;16.59;44.26;95711.28;5085836;28;20193;-78
2022/05/20 00:48:11;;;;;;;3.87;2.60;;;;;;;16.58;44.23;95714.81;5086381;28;20200;-78
2022/05/20 00:50:42;;;;;;;3.43;2.73;;;;;;;16.46;44.46;95696.19;5087150;28;20174;-77
2022/05/20 00:53:12;;;;;;;3.07;2.60;;;;;;;16.54;44.39;95720.31;5086504;28;20562;-77
2022/05/20 00:55:41;;;;;;;2.80;2.40;;;;;;;16.50;44.68;95711.22;5086389;28;20193;-79
2022/05/20 00:58:13;;;;;;;3.60;2.40;;;;;;;16.49;44.77;95711.34;5085596;28;20197;-77
2022/05/20 01:00:45;;;;;;;4.63;2.60;;;;;;;16.32;44.72;95697.53;5086589;28;20561;-77
2022/05/20 01:03:16;;;;;;;2.77;2.40;;;;;;;16.39;44.80;95705.47;5086145;28;20177;-76
2022/05/20 01:05:45;;;;;;;4.47;2.53;;;;;;;16.44;44.96;95711.81;5086861;28;20182;-78
2022/05/20 01:08:15;;;;;;;4.03;2.57;;;;;;;16.21;45.11;95680.47;5085243;28;20193;-77
2022/05/20 01:10:42;;;;;;;5.70;2.70;;;;;;;16.25;45.11;95691.31;5085835;28;20189;-77
2022/05/20 01:13:10;;;;;;;2.80;2.57;;;;;;;16.38;45.20;95712.41;5085302;28;20191;-78
2022/05/20 01:15:37;;;;;;;3.50;2.20;;;;;;;16.36;45.38;95703.19;5085974;28;20580;-78
2022/05/20 01:18:06;;;;;;;5.50;2.80;;;;;;;16.34;45.38;95702.53;5085644;28;20178;-77
2022/05/20 01:20:37;;;;;;;3.87;2.57;;;;;;;16.32;45.43;95700.09;5086141;28;20178;-77
2022/05/20 01:23:09;;;;;;;2.87;2.57;;;;;;;16.14;45.78;95674.28;5086036;28;20189;-77
2022/05/20 01:25:37;;;;;;;5.10;2.60;;;;;;;16.29;45.64;95695.22;5085561;28;20196;-77
2022/05/20 01:28:05;;;;;;;5.03;2.30;;;;;;;16.14;45.53;95676.84;5085274;28;20228;-77
2022/05/20 01:30:32;;;;;;;4.13;2.90;;;;;;;16.02;45.75;95655.63;5085484;28;20185;-77
2022/05/20 01:33:04;;;;;;;4.87;2.57;;;;;;;16.10;45.77;95669.56;5085923;28;20286;-77
2022/05/20 01:35:36;;;;;;;6.80;2.17;;;;;;;16.00;46.01;95659.31;5085708;28;20186;-77
2022/05/20 01:38:03;;;;;;;3.53;2.53;;;;;;;16.12;45.91;95693.47;5085643;28;20771;-76
2022/05/20 01:40:41;;;;;;;2.30;2.10;;;;;;;16.02;45.95;95672.91;5086139;28;20294;-77
2022/05/20 01:43:15;;;;;;;3.17;2.40;;;;;;;16.13;45.94;95698.47;5080950;28;20198;-77
2022/05/20 01:45:47;;;;;;;3.13;2.60;;;;;;;15.90;46.24;95664.53;5085982;28;20190;-77
2022/05/20 01:48:22;;;;;;;2.97;2.50;;;;;;;16.10;46.37;95701.31;5085993;28;20202;-77
2022/05/20 01:50:53;;;;;;;4.80;2.70;;;;;;;15.96;46.40;95681.19;5085558;28;20185;-76
2022/05/20 01:53:27;;;;;;;4.07;2.30;;;;;;;16.07;46.52;95703.41;5085938;28;20186;-77
2022/05/20 01:56:01;;;;;;;2.77;2.50;;;;;;;15.90;46.45;95677.44;5085549;28;20199;-75
2022/05/20 01:58:32;;;;;;;3.53;2.50;;;;;;;16.03;46.51;95693.38;5089548;28;20201;-77
2022/05/20 02:01:03;;;;;;;2.60;2.40;;;;;;;16.01;46.77;95702.22;5090683;28;20637;-78
2022/05/20 02:03:35;;;;;;;5.77;2.40;;;;;;;15.81;46.84;95665.44;5085195;28;20649;-76
2022/05/20 02:06:06;;;;;;;2.70;2.50;;;;;;;15.97;47.01;95698.28;5085641;28;20190;-76
2022/05/20 02:08:37;;;;;;;2.40;2.20;;;;;;;15.87;46.91;95690.63;5085645;28;20178;-76
2022/05/20 02:11:08;;;;;;;2.07;1.90;;;;;;;15.93;47.05;95704.69;5085501;28;20178;-77
2022/05/20 02:13:39;;;;;;;2.73;2.50;;;;;;;15.93;47.20;95705.53;5085267;28;20200;-76
2022/05/20 02:16:12;;;;;;;4.13;2.83;;;;;;;15.90;47.26;95705.81;5085305;28;20186;-76
2022/05/20 02:18:44;;;;;;;2.50;2.30;;;;;;;15.81;47.30;95696.38;5085177;28;20653;-76
2022/05/20 02:21:13;;;;;;;2.60;2.37;;;;;;;15.86;47.03;95709.66;5087481;28;20181;-77
2022/05/20 02:23:46;;;;;;;3.50;2.40;;;;;;;15.83;47.35;95709.94;5089066;28;20200;-78
2022/05/20 02:26:23;;;;;;;2.70;2.40;;;;;;;15.81;47.34;95704.13;5088878;28;20186;-79
2022/05/20 02:28:55;;;;;;;3.07;2.13;;;;;;;15.79;47.09;95713.75;5089468;28;20192;-77
2022/05/20 02:31:26;;;;;;;2.43;2.23;;;;;;;15.65;46.92;95699.59;5089584;28;20186;-77
2022/05/20 02:33:53;;;;;;;2.30;2.10;;;;;;;15.78;47.10;95725.03;5089130;28;21009;-77
2022/05/20 02:36:25;;;;;;;5.17;2.43;;;;;;;15.75;47.06;95723.53;5089652;28;20189;-77
2022/05/20 02:38:52;;;;;;;3.20;2.00;;;;;;;15.73;47.16;95715.16;5088891;28;20190;-77
2022/05/20 02:41:21;;;;;;;4.80;2.30;;;;;;;15.72;47.17;95718.69;5089127;28;20263;-77
2022/05/20 02:43:48;;;;;;;4.60;2.20;;;;;;;15.70;47.21;95712.03;5088049;28;20672;-77
2022/05/20 02:46:15;;;;;;;2.97;2.30;;;;;;;15.49;47.34;95683.88;5089336;28;20633;-76
2022/05/20 02:48:42;;;;;;;2.83;2.47;;;;;;;15.42;47.37;95673.34;5088327;28;20182;-78
2022/05/20 02:51:09;;;;;;;4.13;2.60;;;;;;;15.47;47.23;95680.66;5089336;28;20190;-78
2022/05/20 02:53:36;;;;;;;3.80;2.40;;;;;;;15.64;47.16;95699.69;5088475;28;20186;-77
2022/05/20 02:56:04;;;;;;;4.47;2.97;;;;;;;15.22;47.38;95641.69;5089339;28;20178;-77
2022/05/20 03:04:11;;;;;;;3.63;2.10;;;;;;;15.56;47.58;95705.56;5088404;28;20196;-78
2022/05/20 03:06:38;;;;;;;5.13;2.60;;;;;;;15.19;47.50;95647.13;5088152;28;20661;-79
2022/05/20 03:09:06;;;;;;;3.67;2.60;;;;;;;15.53;47.40;95701.50;5088549;28;20200;-78
2022/05/20 03:11:34;;;;;;;2.90;2.53;;;;;;;15.53;47.72;95704.06;5088798;28;20213;-77
2022/05/20 03:14:03;;;;;;;5.93;2.90;;;;;;;15.52;47.71;95706.81;5088447;28;20201;-77
2022/05/20 03:16:30;;;;;;;3.80;2.30;;;;;;;15.39;47.67;95688.28;5088159;28;20190;-77
2022/05/20 03:18:57;;;;;;;8.33;3.00;;;;;;;15.36;47.66;95680.81;5088622;28;20212;-77
2022/05/20 03:21:24;;;;;;;3.37;2.50;;;;;;;15.51;47.64;95700.84;5088626;28;20182;-77
2022/05/20 03:23:52;;;;;;;3.53;2.50;;;;;;;15.25;47.68;95662.03;5087923;28;20196;-77
2022/05/20 03:26:20;;;;;;;7.93;2.80;;;;;;;15.29;47.87;95668.53;5088618;28;20221;-78
2022/05/20 03:28:47;;;;;;;6.17;2.90;;;;;;;15.55;47.77;95701.38;5087685;28;20218;-77
2022/05/20 03:31:15;;;;;;;6.23;2.80;;;;;;;15.55;47.92;95711.69;5088221;28;20182;-78
2022/05/20 03:33:43;;;;;;;4.13;3.20;;;;;;;15.32;47.94;95675.94;5086088;28;20244;-77
2022/05/20 03:36:11;;;;;;;6.13;3.13;;;;;;;15.56;47.92;95715.88;5088599;28;20186;-77
2022/05/20 03:38:38;;;;;;;4.77;3.07;;;;;;;15.58;48.02;95721.69;5088367;28;20243;-77
2022/05/20 03:41:05;;;;;;;6.33;3.07;;;;;;;15.59;47.97;95725.09;5088297;28;20174;-77
2022/05/20 03:43:33;;;;;;;5.37;2.70;;;;;;;15.60;48.00;95734.47;5088015;28;20242;-78
2022/05/20 03:46:00;;;;;;;6.60;2.83;;;;;;;15.59;47.99;95730.25;5088104;28;20190;-77
2022/05/20 03:48:29;;;;;;;6.27;3.23;;;;;;;15.41;48.03;95700.06;5088360;28;20213;-77
2022/05/20 03:50:57;;;;;;;4.90;2.67;;;;;;;15.64;48.02;95746.13;5087681;28;20189;-76
2022/05/20 03:53:24;;;;;;;2.83;2.57;;;;;;;15.65;47.99;95745.19;5087820;28;20559;-77
2022/05/20 03:55:50;;;;;;;8.37;3.20;;;;;;;15.68;47.85;95753.47;5087913;28;20198;-76
2022/05/20 03:58:17;;;;;;;4.50;3.23;;;;;;;15.65;48.10;95742.63;5087974;28;20185;-77
2022/05/20 04:03:31;;;;;;;10.53;3.27;;;;;;;15.74;48.00;95755.44;5087484;28;20272;-78
2022/05/20 04:06:00;;;;;;;3.50;3.03;;;;;;;15.78;47.96;95753.41;5090256;28;20189;-78
2022/05/20 04:08:28;;;;;;;8.10;3.40;;;;;;;15.79;47.94;95758.41;5091718;28;20218;-78
2022/05/20 04:10:55;;;;;;;4.90;2.73;;;;;;;15.82;47.78;95754.75;5091527;28;20181;-77
2022/05/20 04:13:22;;;;;;;3.03;2.53;;;;;;;15.64;47.70;95726.34;5091841;28;20190;-78
2022/05/20 04:15:50;;;;;;;6.63;3.43;;;;;;;15.86;47.71;95753.50;5091112;28;20259;-75
2022/05/20 04:18:17;;;;;;;4.57;2.87;;;;;;;15.82;47.79;95741.84;5091468;28;20194;-76
2022/05/20 04:20:45;;;;;;;3.80;2.80;;;;;;;15.91;47.88;95751.28;5090900;28;20201;-78
2022/05/20 04:23:14;;;;;;;5.33;2.80;;;;;;;15.94;47.79;95747.63;5091543;28;20193;-78
2022/05/20 04:25:45;;;;;;;6.77;3.17;;;;;;;15.96;47.93;95749.09;5091184;28;20273;-77
2022/05/20 04:28:12;;;;;;;6.63;3.40;;;;;;;15.79;47.68;95719.72;5090368;28;20214;-79
2022/05/20 04:30:39;;;;;;;3.83;2.93;;;;;;;16.01;47.98;95746.88;5090660;28;20452;-78
2022/05/20 04:33:06;;;;;;;4.93;2.83;;;;;;;16.04;47.97;95753.53;5091048;28;20224;-79
2022/05/20 04:35:33;;;;;;;3.70;3.17;;;;;;;15.64;47.99;95685.06;5091407;28;20197;-78
2022/05/20 04:38:03;;;;;;;6.47;3.10;;;;;;;16.11;48.03;95746.03;5090992;28;20196;-78
2022/05/20 04:40:30;;;;;;;4.17;3.00;;;;;;;16.13;47.95;95757.81;5091437;28;20193;-78
2022/05/20 04:48:27;;;;;;;6.47;3.60;;;;;;;16.17;48.54;95760.94;5090958;28;20232;-76
2022/05/20 04:50:53;;;;;;;6.87;3.33;;;;;;;16.17;48.65;95760.94;5090661;28;20660;-76
2022/05/20 04:56:02;;;;;;;10.63;2.40;;;;;;;16.50;78.86;95760.28;5091145;28;20281;-86
2022/05/20 04:58:29;;;;;;;3.17;2.60;;;;;;;16.15;76.80;95634.63;5091300;28;20695;-79
2022/05/20 05:00:57;;;;;;;4.13;2.40;;;;;;;16.31;74.09;95574.56;5090768;28;20216;-81
2022/05/20 05:03:23;;;;;;;12.13;2.83;;;;;;;18.05;73.25;95778.59;5091776;28;20216;-79
2022/05/20 05:05:50;;;;;;;9.77;2.93;;;;;;;18.61;71.25;95773.66;5091297;28;20193;-87
2022/05/20 05:08:18;;;;;;;5.27;2.90;;;;;;;19.07;69.28;95755.88;5092036;28;20213;-88
2022/05/20 05:10:46;;;;;;;3.43;2.80;;;;;;;19.73;66.45;95766.00;5091447;28;20189;-78
2022/05/20 05:13:14;;;;;;;6.03;2.87;;;;;;;20.39;62.78;95781.25;5090915;28;20281;-81
2022/05/20 05:15:44;;;;;;;3.00;2.70;;;;;;;21.02;59.89;95780.16;5090809;28;20186;-85
2022/05/20 05:18:12;;;;;;;6.77;2.50;;;;;;;21.61;56.28;95780.28;5092095;28;20200;-85
2022/05/20 05:20:42;;;;;;;7.40;2.90;;;;;;;22.37;53.01;95783.47;5091840;28;20284;-77
2022/05/20 05:23:09;;;;;;;5.72;3.30;;;;;;;23.18;50.80;95785.84;5090494;28;20189;-78
2022/05/20 05:25:39;;;;;;;5.35;3.05;;;;;;;23.99;48.90;95784.38;5090420;28;20182;-79
2022/05/20 05:28:08;;;;;;;4.72;2.65;;;;;;;24.86;46.75;95785.44;5090797;28;20300;-80
2022/05/20 05:30:35;;;;;;;6.05;2.95;;;;;;;25.71;44.78;95781.19;5090879;28;20193;-78
2022/05/20 05:33:02;;;;;;;3.90;2.92;;;;;;;26.56;42.71;95782.94;5090655;28;20221;-81
2022/05/20 05:35:32;;;;;;;3.05;2.60;;;;;;;27.41;40.74;95780.72;5092555;28;20201;-82
2022/05/20 05:37:59;;;;;;;5.30;2.53;;;;;;;28.25;39.24;95784.50;5096200;28;20186;-79
2022/05/20 05:40:29;;;;;;;10.10;2.97;;;;;;;29.07;37.67;95782.19;5090943;28;20189;-80
2022/05/20 05:42:56;;;;;;;6.93;2.63;;;;;;;29.87;35.88;95786.09;5091083;28;20572;-80
2022/05/20 05:45:26;;;;;;;5.00;2.67;;;;;;;30.64;34.57;95788.41;5091134;28;20182;-80
2022/05/20 05:47:57;;;;;;;3.80;3.17;;;;;;;31.38;33.38;95780.44;5091141;28;20777;-80
2022/05/20 05:50:25;;;;;;;7.30;2.83;;;;;;;32.09;32.49;95783.28;5089490;28;20189;-79
2022/05/20 05:52:56;;;;;;;6.10;2.72;;;;;;;32.76;31.70;95777.66;5092137;28;20625;-80
2022/05/20 05:55:26;;;;;;;8.73;3.28;;;;;;;33.17;30.56;95743.59;5100603;28;20192;-79
2022/05/20 05:57:53;;;;;;;7.30;2.67;;;;;;;34.00;29.65;95782.84;5099230;28;20672;-78
2022/05/20 06:00:24;;;;;;;4.20;2.78;;;;;;;34.55;28.85;95792.91;5101970;28;20197;-79
2022/05/20 06:02:51;;;;;;;4.72;2.55;;;;;;;35.10;28.05;95790.59;5094157;28;20229;-78
2022/05/20 06:05:18;;;;;;;8.52;2.72;;;;;;;35.60;27.38;95789.78;5094871;28;20247;-78
2022/05/20 06:07:46;;;;;;;5.32;3.10;;;;;;;36.07;26.78;95788.63;5093911;28;20241;-79
2022/05/20 06:10:13;;;;;;;4.70;3.15;;;;;;;36.54;26.15;95791.91;5094399;28;20197;-78
2022/05/20 06:12:40;;;;;;;7.88;3.00;;;;;;;36.98;25.64;95791.09;5094064;28;20667;-80
2022/05/20 06:15:09;;;;;;;6.40;2.75;;;;;;;37.38;25.00;95785.41;5093891;28;20193;-80
2022/05/20 06:17:39;;;;;;;6.72;2.97;;;;;;;37.65;24.57;95763.56;5093920;28;20194;-78
2022/05/20 06:20:07;;;;;;;11.18;3.47;;;;;;;38.12;24.14;95775.31;5093765;28;20190;-79
2022/05/20 06:22:34;;;;;;;8.70;2.95;;;;;;;38.44;23.81;95779.22;5093740;28;20716;-81
2022/05/20 06:25:01;;;;;;;4.82;2.92;;;;;;;38.56;23.53;95757.38;5093524;28;20190;-79
2022/05/20 06:27:28;;;;;;;6.22;3.03;;;;;;;39.00;23.08;95783.78;5093701;28;20202;-79
2022/05/20 06:29:55;;;;;;;4.20;2.60;;;;;;;39.21;22.68;95778.09;5094024;28;20189;-83
2022/05/20 06:32:22;;;;;;;7.07;3.22;;;;;;;39.48;22.77;95780.88;5094092;28;20247;-78
2022/05/20 06:40:22;;;;;;;8.55;2.75;;;;;;;40.12;21.77;95781.06;5087672;28;20185;-81
2022/05/20 06:42:49;;;;;;;9.13;3.00;;;;;;;40.30;21.88;95780.13;5093299;28;20197;-81
2022/05/20 06:45:17;;;;;;;5.78;2.60;;;;;;;40.10;21.63;95717.00;5093033;28;20194;-82
2022/05/20 06:47:44;;;;;;;8.35;3.03;;;;;;;40.59;21.03;95765.56;5092808;28;20193;-79
2022/05/20 06:50:13;;;;;;;5.82;3.17;;;;;;;40.62;21.06;95743.50;5093307;28;20679;-81
2022/05/20 06:52:40;;;;;;;8.65;3.10;;;;;;;40.91;20.77;95758.41;5085037;28;20204;-81
2022/05/20 06:55:08;;;;;;;4.03;3.03;;;;;;;41.25;20.56;95776.66;5087033;28;20639;-79
2022/05/20 06:57:38;;;;;;;6.38;2.90;;;;;;;41.43;20.72;95777.59;5092110;28;20217;-83
2022/05/20 07:00:07;;;;;;;8.82;2.97;;;;;;;41.49;20.24;95762.91;5091643;28;20661;-80
2022/05/20 07:02:34;;;;;;;8.60;3.00;;;;;;;41.75;20.54;95776.44;5088265;28;20201;-80
2022/05/20 07:05:03;;;;;;;6.07;3.05;;;;;;;41.68;19.90;95744.66;5088480;28;20193;-80
2022/05/20 07:07:32;;;;;;;3.70;2.90;;;;;;;42.06;20.51;95773.75;5091693;28;20185;-82
2022/05/20 07:09:59;;;;;;;4.05;3.20;;;;;;;42.21;19.82;95772.50;5089585;28;20215;-80
2022/05/20 07:12:26;;;;;;;4.70;2.88;;;;;;;42.33;19.67;95768.13;5091019;28;20193;-79
2022/05/20 07:14:52;;;;;;;8.35;3.03;;;;;;;42.44;19.72;95768.59;5090191;28;20248;-81
2022/05/20 07:17:22;;;;;;;6.40;3.03;;;;;;;42.52;19.41;95778.59;5091834;28;20262;-80
2022/05/20 07:19:50;;;;;;;4.28;3.00;;;;;;;42.60;19.22;95777.81;5090171;28;20732;-81
2022/05/20 07:22:18;;;;;;;8.20;3.08;;;;;;;42.67;19.39;95776.59;5090657;28;20220;-81
2022/05/20 07:24:46;;;;;;;5.13;3.10;;;;;;;42.73;19.15;95780.69;5091270;28;20549;-82
2022/05/20 07:27:13;;;;;;;5.45;2.70;;;;;;;42.29;19.18;95704.53;5090067;28;20197;-81
2022/05/20 07:29:41;;;;;;;4.03;3.28;;;;;;;42.79;19.38;95777.53;5086804;28;20317;-81
2022/05/20 07:32:08;;;;;;;4.85;2.55;;;;;;;42.82;19.27;95773.41;5090934;28;20197;-81
2022/05/20 07:34:35;;;;;;;2.88;2.55;;;;;;;42.74;19.15;95750.75;5086068;28;20583;-79
2022/05/20 07:37:03;;;;;;;4.70;3.33;;;;;;;42.77;19.03;95757.41;5091230;28;20664;-81
2022/05/20 07:39:30;;;;;;;4.88;2.40;;;;;;;42.88;18.87;95772.13;5090618;28;20281;-81
2022/05/20 07:41:59;;;;;;;3.25;2.75;;;;;;;42.88;18.95;95766.75;5091050;28;20186;-82
2022/05/20 07:44:27;;;;;;;3.85;2.47;;;;;;;42.90;19.03;95766.44;5088482;28;20205;-80
2022/05/20 07:46:53;;;;;;;5.63;2.83;;;;;;;42.90;19.11;95775.28;5087956;28;20193;-80
2022/05/20 07:49:20;;;;;;;3.38;2.63;;;;;;;42.89;18.77;95762.16;5090463;28;20662;-82
2022/05/20 07:51:52;;;;;;;5.90;2.50;;;;;;;42.86;18.75;95763.56;5088357;28;20193;-83
2022/05/20 07:54:24;;;;;;;5.65;2.65;;;;;;;42.41;18.77;95702.00;5087086;28;20217;-83
2022/05/20 07:56:57;;;;;;;5.85;3.03;;;;;;;42.78;19.03;95756.28;5088641;28;20189;-84
2022/05/20 07:59:30;;;;;;;3.45;2.42;;;;;;;42.72;18.88;95752.19;5086112;28;20209;-85
2022/05/20 08:01:57;;;;;;;4.32;3.00;;;;;;;42.66;18.75;95745.38;5090490;28;20274;-83
2022/05/20 08:07:13;;;;;;;3.10;2.67;;;;;;;42.36;18.56;95720.97;5089337;28;20208;-83
2022/05/20 08:09:40;;;;;;;4.75;2.20;;;;;;;42.26;18.44;95719.38;5089077;28;20223;-82
2022/05/20 08:12:08;;;;;;;5.32;2.60;;;;;;;41.85;18.35;95666.81;5090349;28;20193;-83
2022/05/20 08:14:36;;;;;;;6.40;2.40;;;;;;;42.19;18.67;95737.88;5089002;28;20185;-84
2022/05/20 08:17:04;;;;;;;2.97;2.65;;;;;;;41.85;18.90;95699.06;5088307;28;20193;-83
2022/05/20 08:19:31;;;;;;;2.35;2.15;;;;;;;41.43;18.46;95648.66;5089928;28;20193;-83
2022/05/20 08:21:58;;;;;;;4.70;2.20;;;;;;;41.89;18.56;95734.16;5090871;28;20279;-83
2022/05/20 08:24:26;;;;;;;3.13;2.15;;;;;;;41.76;18.95;95735.84;5089481;28;20188;-82
2022/05/20 08:26:53;;;;;;;4.35;2.30;;;;;;;41.61;18.58;95733.56;5090917;28;20235;-86
2022/05/20 08:29:20;;;;;;;3.67;2.40;;;;;;;41.36;18.88;95711.63;5097400;28;20221;-84
2022/05/20 08:31:48;;;;;;;2.60;2.05;;;;;;;41.33;18.99;95728.38;5094269;28;20212;-83
2022/05/20 08:34:15;;;;;;;4.43;2.65;;;;;;;41.02;18.76;95708.75;5090733;28;20222;-82
2022/05/20 08:36:42;;;;;;;6.28;2.75;;;;;;;41.02;18.91;95727.56;5089013;28;20190;-82
2022/05/20 08:39:12;;;;;;;3.38;2.15;;;;;;;40.68;19.04;95702.06;5088192;28;20201;-80
2022/05/20 08:41:42;;;;;;;3.58;2.22;;;;;;;40.66;18.51;95722.25;5089724;28;20197;-84
2022/05/20 08:44:12;;;;;;;4.97;2.58;;;;;;;40.45;18.53;95709.25;5085140;28;20225;-85
2022/05/20 08:46:41;;;;;;;2.13;1.80;;;;;;;40.32;18.59;95716.25;5085853;28;20186;-82
2022/05/20 08:49:13;;;;;;;4.53;2.20;;;;;;;40.08;18.97;95711.13;5087052;28;20261;-84
2022/05/20 08:51:43;;;;;;;1.85;1.70;;;;;;;39.94;18.80;95717.59;5084303;28;20194;-80
2022/05/20 08:54:10;;;;;;;4.72;1.70;;;;;;;39.34;19.06;95651.56;5088929;28;20204;-83
2022/05/20 08:56:39;;;;;;;3.35;2.08;;;;;;;39.58;19.13;95707.56;5091214;28;20251;-83
2022/05/20 08:59:08;;;;;;;2.50;2.00;;;;;;;39.40;18.95;95703.91;5079749;28;20209;-87
2022/05/20 09:01:38;;;;;;;8.07;2.28;;;;;;;38.87;19.11;95642.75;5085407;28;20737;-87
2022/05/20 09:04:06;;;;;;;4.32;2.28;;;;;;;39.04;19.02;95693.03;5080566;28;20194;-83
2022/05/20 09:06:38;;;;;;;4.82;2.38;;;;;;;38.56;19.21;95645.09;5088314;28;20609;-82
2022/05/20 09:09:10;;;;;;;3.10;2.00;;;;;;;38.66;18.96;95693.06;5085675;28;20218;-85
2022/05/20 09:11:37;;;;;;;2.33;2.00;;;;;;;38.34;19.40;95659.88;5082140;28;20194;-83
2022/05/20 09:17:04;;;;;;;6.53;1.98;;;;;;;38.08;19.92;95675.44;5085964;28;20715;-83
2022/05/20 09:19:31;;;;;;;2.10;1.90;;;;;;;37.77;20.09;95645.63;5084978;28;20208;-83
2022/05/20 09:22:05;;;;;;;3.40;1.60;;;;;;;37.64;19.89;95652.47;5087740;28;20196;-81
2022/05/20 09:24:43;;;;;;;2.17;1.85;;;;;;;37.53;19.94;95655.56;5087191;28;20200;-83
2022/05/20 09:27:13;;;;;;;2.10;1.80;;;;;;;37.32;20.10;95661.09;5086818;28;20193;-83
2022/05/20 09:29:45;;;;;;;4.30;1.73;;;;;;;37.13;20.09;95645.00;5094067;28;20228;-83
2022/05/20 09:32:26;;;;;;;4.22;2.10;;;;;;;36.46;20.65;95569.38;5107123;28;20186;-83
2022/05/20 09:35:02;;;;;;;2.17;1.98;;;;;;;36.74;20.56;95637.09;5087860;28;20257;-85
2022/05/20 09:37:32;;;;;;;1.75;1.65;;;;;;;36.56;20.68;95649.25;5090760;28;20189;-84
2022/05/20 09:40:15;;;;;;;4.88;1.92;;;;;;;36.01;20.66;95587.31;5085172;28;20197;-85
2022/05/20 09:42:58;;;;;;;2.13;1.80;;;;;;;35.48;20.70;95533.00;5080304;28;20369;-85
2022/05/20 09:45:25;;;;;;;2.10;1.77;;;;;;;35.75;20.64;95594.59;5087213;28;20189;-85
2022/05/20 09:47:56;;;;;;;1.90;1.45;;;;;;;35.72;20.75;95621.00;5088060;28;20201;-84
2022/05/20 09:50:27;;;;;;;2.50;1.70;;;;;;;35.48;20.55;95613.63;5084798;28;20217;-84
2022/05/20 09:53:00;;;;;;;3.50;1.70;;;;;;;34.21;20.93;95441.94;5084768;28;20194;-86
2022/05/20 09:55:31;;;;;;;3.55;1.75;;;;;;;34.23;20.53;95474.31;5088097;28;20189;-85
2022/05/20 09:58:13;;;;;;;2.22;1.60;;;;;;;35.06;20.60;95622.81;5087027;28;20682;-85
2022/05/20 10:00:45;;;;;;;3.00;1.73;;;;;;;34.89;20.76;95615.09;5086731;28;20579;-85
2022/05/20 10:03:20;;;;;;;1.90;1.70;;;;;;;34.72;20.79;95613.78;5088318;28;20198;-84
2022/05/20 10:05:52;;;;;;;2.17;1.77;;;;;;;34.54;20.77;95625.75;5085910;28;20189;-85
2022/05/20 10:08:29;;;;;;;2.85;1.70;;;;;;;33.42;20.92;95467.91;5085638;28;20196;-86
2022/05/20 10:11:09;;;;;;;3.78;1.65;;;;;;;34.13;20.67;95605.25;5088632;28;20196;-85
2022/05/20 10:13:53;;;;;;;5.68;1.70;;;;;;;33.98;20.72;95599.13;5086174;28;20189;-85
2022/05/20 10:16:32;;;;;;;1.70;1.60;;;;;;;33.72;20.89;95580.47;5083427;28;20193;-85
2022/05/20 10:19:08;;;;;;;1.60;1.50;;;;;;;33.26;21.20;95529.91;5088980;28;20197;-83
2022/05/20 10:21:50;;;;;;;3.13;1.67;;;;;;;33.56;21.04;95600.84;5084129;28;20673;-85
2022/05/20 10:24:48;;;;;;;2.35;2.15;;;;;;;33.39;20.91;95595.72;5088104;28;20657;-85
2022/05/20 10:27:20;;;;;;;2.22;1.50;;;;;;;32.99;20.90;95548.63;5045855;28;20202;-86
2022/05/20 10:32:47;;;;;;;1.90;1.80;;;;;;;32.74;21.07;95540.53;5047178;28;20237;-86
2022/05/20 10:35:18;;;;;;;3.45;1.73;;;;;;;32.76;21.65;95557.75;5045266;28;20742;-85
2022/05/20 10:38:18;;;;;;;5.03;1.83;;;;;;;32.64;21.39;95560.59;5043571;28;20195;-83
2022/05/20 10:40:55;;;;;;;2.33;1.73;;;;;;;32.63;21.27;95566.94;5046149;28;20650;-82
2022/05/20 10:48:34;;;;;;;2.60;1.52;;;;;;;32.41;20.98;95553.81;5048739;28;20201;-83
2022/05/20 10:49:26;;;;;;;2.38;1.92;;;;;;;32.32;21.24;95563.25;5050656;28;20218;-79
2022/05/20 10:52:09;;;;;;;3.33;1.60;;;;;;;31.63;21.16;95473.97;5052827;28;20699;-82
2022/05/20 10:55:09;;;;;;;5.65;2.42;;;;;;;31.99;21.33;95548.41;5047954;28;20183;-81
2022/05/20 10:58:16;;;;;;;2.80;2.40;;;;;;;31.70;26.72;95535.44;5047034;28;20191;-78
2022/05/20 11:00:50;;;;;;;5.30;2.40;;;;;;;31.34;27.83;95518.38;4976410;28;20191;-79
2022/05/20 11:04:05;;;;;;;5.60;2.50;;;;;;;31.35;28.60;95551.72;4984518;28;20197;-78
2022/05/20 11:07:13;;;;;;;6.40;2.70;;;;;;;31.14;29.50;95531.34;4950055;29;20194;-81
2022/05/20 11:09:53;;;;;;;6.22;2.40;;;;;;;30.72;29.95;95490.41;4951164;29;20229;-79
2022/05/20 11:12:27;;;;;;;5.07;2.30;;;;;;;30.80;30.20;95531.47;4951466;29;20222;-79
2022/05/20 11:15:19;;;;;;;4.78;2.55;;;;;;;30.49;30.35;95501.16;4951753;29;20209;-80
2022/05/20 11:18:01;;;;;;;6.13;2.88;;;;;;;30.47;29.19;95519.88;4951112;28;20286;-78
2022/05/20 11:21:01;;;;;;;4.93;2.25;;;;;;;30.26;30.28;95507.41;4950335;29;20249;-78
2022/05/20 11:23:57;;;;;;;3.92;1.98;;;;;;;30.02;29.48;95492.78;4875928;29;20288;-81
2022/05/20 11:26:42;;;;;;;4.72;2.05;;;;;;;30.00;29.36;95512.25;4877667;29;20312;-83
2022/05/20 11:29:35;;;;;;;4.63;2.08;;;;;;;29.92;29.14;95510.06;4875861;29;20201;-83
2022/05/20 11:32:07;;;;;;;4.68;2.28;;;;;;;29.84;29.12;95509.66;4873859;29;20245;-81
2022/05/20 11:35:07;;;;;;;1.90;1.77;;;;;;;29.48;30.62;95464.97;4897896;29;20234;-82
2022/05/20 11:38:07;;;;;;;3.97;2.28;;;;;;;29.66;31.18;95493.00;4942394;29;20626;-82
2022/05/20 11:40:52;;;;;;;3.00;2.33;;;;;;;29.59;31.14;95486.28;4916297;29;20206;-83
2022/05/20 11:43:46;;;;;;;2.58;2.38;;;;;;;29.43;30.08;95477.25;4951815;29;20195;-80
2022/05/20 11:46:27;;;;;;;2.70;2.38;;;;;;;29.43;28.71;95500.97;4951906;29;20201;-81
2022/05/20 11:49:11;;;;;;;4.95;2.83;;;;;;;29.33;28.78;95490.25;4954473;29;20850;-83
2022/05/20 11:52:08;;;;;;;2.67;1.75;;;;;;;29.25;29.72;95478.25;4953538;28;20187;-77
2022/05/20 11:54:40;;;;;;;4.00;2.22;;;;;;;29.19;30.21;95479.22;4950081;28;20278;-81
2022/05/20 11:57:11;;;;;;;2.10;1.83;;;;;;;28.19;30.01;95336.31;4951468;29;20202;-85
2022/05/20 11:59:45;;;;;;;2.00;1.80;;;;;;;29.07;29.68;95473.97;4965085;28;20199;-83
2022/05/20 12:02:17;;;;;;;2.63;1.90;;;;;;;29.03;30.09;95474.69;5028609;28;20203;-85
2022/05/20 12:04:48;;;;;;;2.60;1.95;;;;;;;28.98;31.11;95467.47;5026059;28;20196;-81
2022/05/20 12:07:17;;;;;;;4.13;2.08;;;;;;;28.94;31.47;95464.47;5025080;28;20323;-81
2022/05/20 12:09:47;;;;;;;2.70;2.03;;;;;;;28.75;31.73;95444.59;5027283;28;20219;-82
2022/05/20 12:12:20;;;;;;;1.88;1.67;;;;;;;28.88;32.19;95462.75;5031556;28;20210;-81
2022/05/20 12:15:29;;;;;;;5.57;2.28;;;;;;;28.72;31.08;95442.44;5028284;28;20200;-81
2022/05/20 12:17:56;;;;;;;4.45;1.90;;;;;;;28.77;30.67;95447.00;5072747;28;20197;-81
2022/05/20 12:26:37;;;;;;;4.53;1.98;;;;;;;28.57;31.61;95413.97;5097511;28;20181;-81
2022/05/20 12:29:45;;;;;;;1.65;1.55;;;;;;;28.58;31.19;95430.56;5089641;28;20223;-83
2022/05/20 12:32:31;;;;;;;3.30;1.90;;;;;;;28.58;29.95;95441.06;5090527;28;20217;-86
2022/05/20 12:35:07;;;;;;;2.47;1.73;;;;;;;28.52;29.11;95432.28;5091204;28;20189;-83
2022/05/20 12:38:23;;;;;;;2.33;1.73;;;;;;;28.46;28.13;95430.59;5091023;28;20197;-78